Earls Colne, United Kingdom
Current Conditions -  °F | °C
As of 1:50 PM on Wednesday 28 Jan 2015 (Local Time) from EGUW Reporting Station
Clear Clear  
Wind Chill: 28°   Ceiling: Unl
Heat Index: 39°   Visibility: 6mi
Dew Point: 30°   Wind: 24mph
Humidity: 70%   Direction: 290°WNW
Pressure: 29.44"   Gusts: 44mph
Location:  51.93°N, 0.7°E
Report Text: EGUW 281350Z 29021G38KT CAVOK 04/M01 Q0997 RESHRA BLU NOSIG
Loading
Personal Weather Stations






























Interactive Weather Map New forecast layout! Learn more

10-Day Weather Forecast

Advertisements
Track Severe Weather on mobile